sensor_id;sensor_type;location;lat;lon;timestamp;P1;durP1;ratioP1;P2;durP2;ratioP2
13951;SDS011;39535;52.192;9.886;2023-05-20T00:00:44;1.77;;;1.67;;
13951;SDS011;39535;52.192;9.886;2023-05-20T00:03:12;1.87;;;1.70;;
13951;SDS011;39535;52.192;9.886;2023-05-20T00:05:39;2.67;;;1.97;;
13951;SDS011;39535;52.192;9.886;2023-05-20T00:08:05;2.20;;;1.97;;
13951;SDS011;39535;52.192;9.886;2023-05-20T00:10:33;1.93;;;1.83;;
13951;SDS011;39535;52.192;9.886;2023-05-20T00:12:59;1.83;;;1.67;;
13951;SDS011;39535;52.192;9.886;2023-05-20T00:15:27;2.50;;;2.03;;
13951;SDS011;39535;52.192;9.886;2023-05-20T00:17:54;3.17;;;1.93;;
13951;SDS011;39535;52.192;9.886;2023-05-20T00:20:20;3.27;;;1.90;;
13951;SDS011;39535;52.192;9.886;2023-05-20T00:22:47;2.20;;;2.00;;
13951;SDS011;39535;52.192;9.886;2023-05-20T00:25:13;2.17;;;2.07;;
13951;SDS011;39535;52.192;9.886;2023-05-20T00:27:39;2.80;;;2.07;;
13951;SDS011;39535;52.192;9.886;2023-05-20T00:30:06;2.10;;;2.00;;
13951;SDS011;39535;52.192;9.886;2023-05-20T00:32:35;3.83;;;2.17;;
13951;SDS011;39535;52.192;9.886;2023-05-20T00:35:02;2.20;;;2.00;;
13951;SDS011;39535;52.192;9.886;2023-05-20T00:37:29;1.90;;;1.80;;
13951;SDS011;39535;52.192;9.886;2023-05-20T00:39:55;2.10;;;2.00;;
13951;SDS011;39535;52.192;9.886;2023-05-20T00:42:21;2.43;;;1.70;;
13951;SDS011;39535;52.192;9.886;2023-05-20T00:44:49;3.37;;;2.10;;
13951;SDS011;39535;52.192;9.886;2023-05-20T00:47:16;2.03;;;1.80;;
13951;SDS011;39535;52.192;9.886;2023-05-20T00:49:44;2.30;;;2.00;;
13951;SDS011;39535;52.192;9.886;2023-05-20T00:52:12;2.10;;;1.93;;
13951;SDS011;39535;52.192;9.886;2023-05-20T00:54:39;2.07;;;1.83;;
13951;SDS011;39535;52.192;9.886;2023-05-20T00:57:06;3.10;;;1.93;;
13951;SDS011;39535;52.192;9.886;2023-05-20T00:59:34;2.40;;;1.70;;
13951;SDS011;39535;52.192;9.886;2023-05-20T01:02:02;2.77;;;2.07;;
13951;SDS011;39535;52.192;9.886;2023-05-20T01:04:28;2.70;;;1.87;;
13951;SDS011;39535;52.192;9.886;2023-05-20T01:06:56;1.90;;;1.80;;
13951;SDS011;39535;52.192;9.886;2023-05-20T01:09:24;2.03;;;1.50;;
13951;SDS011;39535;52.192;9.886;2023-05-20T01:11:51;2.07;;;1.90;;
13951;SDS011;39535;52.192;9.886;2023-05-20T01:14:21;2.70;;;2.50;;
13951;SDS011;39535;52.192;9.886;2023-05-20T01:16:52;2.27;;;2.07;;
13951;SDS011;39535;52.192;9.886;2023-05-20T01:19:26;2.17;;;2.00;;
13951;SDS011;39535;52.192;9.886;2023-05-20T01:21:59;2.00;;;1.90;;
13951;SDS011;39535;52.192;9.886;2023-05-20T01:24:29;3.63;;;1.90;;
13951;SDS011;39535;52.192;9.886;2023-05-20T01:26:55;2.87;;;2.23;;
13951;SDS011;39535;52.192;9.886;2023-05-20T01:29:22;4.27;;;2.10;;
13951;SDS011;39535;52.192;9.886;2023-05-20T01:31:48;2.03;;;1.83;;
13951;SDS011;39535;52.192;9.886;2023-05-20T01:34:16;2.23;;;1.80;;
13951;SDS011;39535;52.192;9.886;2023-05-20T01:36:43;3.10;;;1.90;;
13951;SDS011;39535;52.192;9.886;2023-05-20T01:39:11;2.00;;;1.80;;
13951;SDS011;39535;52.192;9.886;2023-05-20T01:41:39;2.30;;;2.00;;
13951;SDS011;39535;52.192;9.886;2023-05-20T01:44:06;1.93;;;1.83;;
13951;SDS011;39535;52.192;9.886;2023-05-20T01:46:32;2.87;;;2.13;;
13951;SDS011;39535;52.192;9.886;2023-05-20T01:48:59;6.30;;;1.70;;
13951;SDS011;39535;52.192;9.886;2023-05-20T01:51:25;2.07;;;1.87;;
13951;SDS011;39535;52.192;9.886;2023-05-20T01:53:51;2.40;;;2.17;;
13951;SDS011;39535;52.192;9.886;2023-05-20T01:56:18;2.40;;;2.20;;
13951;SDS011;39535;52.192;9.886;2023-05-20T01:58:47;2.20;;;2.00;;
13951;SDS011;39535;52.192;9.886;2023-05-20T02:01:13;1.80;;;1.70;;
13951;SDS011;39535;52.192;9.886;2023-05-20T02:03:39;3.60;;;2.10;;
13951;SDS011;39535;52.192;9.886;2023-05-20T02:06:06;2.53;;;1.90;;
13951;SDS011;39535;52.192;9.886;2023-05-20T02:08:32;2.10;;;1.87;;
13951;SDS011;39535;52.192;9.886;2023-05-20T02:10:58;2.00;;;1.90;;
13951;SDS011;39535;52.192;9.886;2023-05-20T02:13:25;2.17;;;2.07;;
13951;SDS011;39535;52.192;9.886;2023-05-20T02:15:52;2.30;;;2.00;;
13951;SDS011;39535;52.192;9.886;2023-05-20T02:18:19;2.90;;;2.10;;
13951;SDS011;39535;52.192;9.886;2023-05-20T02:20:45;1.70;;;1.60;;
13951;SDS011;39535;52.192;9.886;2023-05-20T02:23:11;2.30;;;2.10;;
13951;SDS011;39535;52.192;9.886;2023-05-20T02:25:38;2.53;;;1.97;;
13951;SDS011;39535;52.192;9.886;2023-05-20T02:28:05;4.10;;;2.10;;
13951;SDS011;39535;52.192;9.886;2023-05-20T02:30:34;2.57;;;2.37;;
13951;SDS011;39535;52.192;9.886;2023-05-20T02:33:02;2.43;;;2.13;;
13951;SDS011;39535;52.192;9.886;2023-05-20T02:35:28;2.57;;;2.10;;
13951;SDS011;39535;52.192;9.886;2023-05-20T02:37:55;2.40;;;1.80;;
13951;SDS011;39535;52.192;9.886;2023-05-20T02:40:21;2.40;;;2.10;;
13951;SDS011;39535;52.192;9.886;2023-05-20T02:42:47;2.60;;;2.30;;
13951;SDS011;39535;52.192;9.886;2023-05-20T02:45:14;2.63;;;2.37;;
13951;SDS011;39535;52.192;9.886;2023-05-20T02:47:40;2.27;;;2.03;;
13951;SDS011;39535;52.192;9.886;2023-05-20T02:50:08;4.07;;;2.60;;
13951;SDS011;39535;52.192;9.886;2023-05-20T02:52:35;2.33;;;2.13;;
13951;SDS011;39535;52.192;9.886;2023-05-20T02:55:04;2.40;;;2.20;;
13951;SDS011;39535;52.192;9.886;2023-05-20T02:57:31;2.77;;;2.40;;
13951;SDS011;39535;52.192;9.886;2023-05-20T02:59:59;3.20;;;2.70;;
13951;SDS011;39535;52.192;9.886;2023-05-20T03:02:25;3.10;;;2.10;;
13951;SDS011;39535;52.192;9.886;2023-05-20T03:04:52;2.47;;;2.20;;
13951;SDS011;39535;52.192;9.886;2023-05-20T03:07:20;2.50;;;2.30;;
13951;SDS011;39535;52.192;9.886;2023-05-20T03:09:46;2.33;;;2.20;;
13951;SDS011;39535;52.192;9.886;2023-05-20T03:12:12;3.67;;;2.70;;
13951;SDS011;39535;52.192;9.886;2023-05-20T03:14:39;2.53;;;2.33;;
13951;SDS011;39535;52.192;9.886;2023-05-20T03:17:05;2.60;;;2.40;;
13951;SDS011;39535;52.192;9.886;2023-05-20T03:19:32;3.60;;;2.57;;
13951;SDS011;39535;52.192;9.886;2023-05-20T03:21:58;3.30;;;2.37;;
13951;SDS011;39535;52.192;9.886;2023-05-20T03:24:26;2.30;;;2.20;;
13951;SDS011;39535;52.192;9.886;2023-05-20T03:26:52;3.20;;;2.60;;
13951;SDS011;39535;52.192;9.886;2023-05-20T03:29:18;2.40;;;2.20;;
13951;SDS011;39535;52.192;9.886;2023-05-20T03:31:45;2.50;;;2.30;;
13951;SDS011;39535;52.192;9.886;2023-05-20T03:34:11;2.57;;;2.37;;
13951;SDS011;39535;52.192;9.886;2023-05-20T03:36:37;2.73;;;2.53;;
13951;SDS011;39535;52.192;9.886;2023-05-20T03:39:04;3.80;;;2.47;;
13951;SDS011;39535;52.192;9.886;2023-05-20T03:41:32;2.53;;;2.30;;
13951;SDS011;39535;52.192;9.886;2023-05-20T03:43:58;7.07;;;2.53;;
13951;SDS011;39535;52.192;9.886;2023-05-20T03:46:25;2.40;;;2.20;;
13951;SDS011;39535;52.192;9.886;2023-05-20T03:48:51;2.87;;;2.20;;
13951;SDS011;39535;52.192;9.886;2023-05-20T03:51:17;2.60;;;2.20;;
13951;SDS011;39535;52.192;9.886;2023-05-20T03:53:43;3.13;;;2.27;;
13951;SDS011;39535;52.192;9.886;2023-05-20T03:56:10;2.50;;;2.30;;
13951;SDS011;39535;52.192;9.886;2023-05-20T03:58:37;2.43;;;2.23;;
13951;SDS011;39535;52.192;9.886;2023-05-20T04:01:04;3.10;;;2.90;;
13951;SDS011;39535;52.192;9.886;2023-05-20T04:03:30;2.60;;;2.40;;
13951;SDS011;39535;52.192;9.886;2023-05-20T04:05:57;3.77;;;2.27;;
13951;SDS011;39535;52.192;9.886;2023-05-20T04:08:23;2.20;;;2.00;;
13951;SDS011;39535;52.192;9.886;2023-05-20T04:10:49;2.50;;;2.10;;
13951;SDS011;39535;52.192;9.886;2023-05-20T04:13:16;2.40;;;2.20;;
13951;SDS011;39535;52.192;9.886;2023-05-20T04:15:43;2.53;;;2.33;;
13951;SDS011;39535;52.192;9.886;2023-05-20T04:18:10;3.20;;;2.40;;
13951;SDS011;39535;52.192;9.886;2023-05-20T04:20:37;2.73;;;2.53;;
13951;SDS011;39535;52.192;9.886;2023-05-20T04:23:05;3.83;;;2.80;;
13951;SDS011;39535;52.192;9.886;2023-05-20T04:25:31;5.50;;;2.43;;
13951;SDS011;39535;52.192;9.886;2023-05-20T04:27:59;2.40;;;2.20;;
13951;SDS011;39535;52.192;9.886;2023-05-20T04:30:26;2.47;;;2.20;;
13951;SDS011;39535;52.192;9.886;2023-05-20T04:32:54;3.60;;;2.47;;
13951;SDS011;39535;52.192;9.886;2023-05-20T04:35:20;5.83;;;2.73;;
13951;SDS011;39535;52.192;9.886;2023-05-20T04:37:50;2.70;;;2.50;;
13951;SDS011;39535;52.192;9.886;2023-05-20T04:40:18;2.87;;;2.27;;
13951;SDS011;39535;52.192;9.886;2023-05-20T04:42:45;2.50;;;2.30;;
13951;SDS011;39535;52.192;9.886;2023-05-20T04:45:11;4.37;;;2.33;;
13951;SDS011;39535;52.192;9.886;2023-05-20T04:47:38;2.13;;;1.93;;
13951;SDS011;39535;52.192;9.886;2023-05-20T04:50:08;2.47;;;2.27;;
13951;SDS011;39535;52.192;9.886;2023-05-20T04:52:35;3.50;;;2.43;;
13951;SDS011;39535;52.192;9.886;2023-05-20T04:55:03;2.50;;;2.07;;
13951;SDS011;39535;52.192;9.886;2023-05-20T04:57:30;2.63;;;2.43;;
13951;SDS011;39535;52.192;9.886;2023-05-20T04:59:58;3.37;;;2.63;;
13951;SDS011;39535;52.192;9.886;2023-05-20T05:02:25;2.63;;;2.43;;
13951;SDS011;39535;52.192;9.886;2023-05-20T05:04:51;3.63;;;2.30;;
13951;SDS011;39535;52.192;9.886;2023-05-20T05:07:18;3.23;;;2.57;;
13951;SDS011;39535;52.192;9.886;2023-05-20T05:09:45;3.17;;;2.87;;
13951;SDS011;39535;52.192;9.886;2023-05-20T05:12:11;4.73;;;2.30;;
13951;SDS011;39535;52.192;9.886;2023-05-20T05:14:37;3.30;;;2.70;;
13951;SDS011;39535;52.192;9.886;2023-05-20T05:17:04;3.83;;;2.63;;
13951;SDS011;39535;52.192;9.886;2023-05-20T05:19:30;2.60;;;2.40;;
13951;SDS011;39535;52.192;9.886;2023-05-20T05:21:56;2.90;;;2.70;;
13951;SDS011;39535;52.192;9.886;2023-05-20T05:24:24;2.50;;;2.30;;
13951;SDS011;39535;52.192;9.886;2023-05-20T05:26:52;2.53;;;2.43;;
13951;SDS011;39535;52.192;9.886;2023-05-20T05:29:18;5.00;;;2.67;;
13951;SDS011;39535;52.192;9.886;2023-05-20T05:31:45;2.70;;;2.50;;
13951;SDS011;39535;52.192;9.886;2023-05-20T05:34:11;3.00;;;2.73;;
13951;SDS011;39535;52.192;9.886;2023-05-20T05:36:38;2.43;;;2.23;;
13951;SDS011;39535;52.192;9.886;2023-05-20T05:39:05;3.73;;;2.80;;
13951;SDS011;39535;52.192;9.886;2023-05-20T05:41:33;2.90;;;2.70;;
13951;SDS011;39535;52.192;9.886;2023-05-20T05:43:59;3.17;;;2.97;;
13951;SDS011;39535;52.192;9.886;2023-05-20T05:46:26;3.53;;;2.63;;
13951;SDS011;39535;52.192;9.886;2023-05-20T05:48:52;3.17;;;2.87;;
13951;SDS011;39535;52.192;9.886;2023-05-20T05:51:18;2.83;;;2.63;;
13951;SDS011;39535;52.192;9.886;2023-05-20T05:53:45;3.17;;;2.97;;
13951;SDS011;39535;52.192;9.886;2023-05-20T05:56:11;3.50;;;3.20;;
13951;SDS011;39535;52.192;9.886;2023-05-20T05:58:39;3.40;;;3.20;;
13951;SDS011;39535;52.192;9.886;2023-05-20T06:01:05;3.80;;;3.50;;
13951;SDS011;39535;52.192;9.886;2023-05-20T06:03:31;4.63;;;3.80;;
13951;SDS011;39535;52.192;9.886;2023-05-20T06:05:58;4.43;;;4.03;;
13951;SDS011;39535;52.192;9.886;2023-05-20T06:08:24;4.07;;;3.77;;
13951;SDS011;39535;52.192;9.886;2023-05-20T06:10:50;4.50;;;4.10;;
13951;SDS011;39535;52.192;9.886;2023-05-20T06:13:17;4.17;;;3.77;;
13951;SDS011;39535;52.192;9.886;2023-05-20T06:15:44;6.47;;;4.00;;
13951;SDS011;39535;52.192;9.886;2023-05-20T06:18:11;4.93;;;4.40;;
13951;SDS011;39535;52.192;9.886;2023-05-20T06:20:37;4.53;;;4.13;;
13951;SDS011;39535;52.192;9.886;2023-05-20T06:23:04;4.10;;;3.70;;
13951;SDS011;39535;52.192;9.886;2023-05-20T06:25:30;4.47;;;4.17;;
13951;SDS011;39535;52.192;9.886;2023-05-20T06:27:56;4.77;;;4.40;;
13951;SDS011;39535;52.192;9.886;2023-05-20T06:30:23;4.13;;;3.83;;
13951;SDS011;39535;52.192;9.886;2023-05-20T06:32:50;4.37;;;4.07;;
13951;SDS011;39535;52.192;9.886;2023-05-20T06:35:16;5.07;;;4.67;;
13951;SDS011;39535;52.192;9.886;2023-05-20T06:37:43;4.00;;;3.67;;
13951;SDS011;39535;52.192;9.886;2023-05-20T06:40:09;4.17;;;3.87;;
13951;SDS011;39535;52.192;9.886;2023-05-20T06:42:37;4.17;;;3.77;;
13951;SDS011;39535;52.192;9.886;2023-05-20T06:45:03;5.30;;;4.47;;
13951;SDS011;39535;52.192;9.886;2023-05-20T06:47:30;4.40;;;4.00;;
13951;SDS011;39535;52.192;9.886;2023-05-20T06:49:58;4.47;;;3.87;;
13951;SDS011;39535;52.192;9.886;2023-05-20T06:52:24;4.23;;;3.93;;
13951;SDS011;39535;52.192;9.886;2023-05-20T06:54:51;4.70;;;4.30;;
13951;SDS011;39535;52.192;9.886;2023-05-20T06:57:17;4.30;;;3.90;;
13951;SDS011;39535;52.192;9.886;2023-05-20T06:59:43;5.10;;;4.60;;
13951;SDS011;39535;52.192;9.886;2023-05-20T07:02:10;4.50;;;4.10;;
13951;SDS011;39535;52.192;9.886;2023-05-20T07:04:36;5.17;;;4.70;;
13951;SDS011;39535;52.192;9.886;2023-05-20T07:07:04;12.93;;;5.40;;
13951;SDS011;39535;52.192;9.886;2023-05-20T07:09:30;4.70;;;4.40;;
13951;SDS011;39535;52.192;9.886;2023-05-20T07:11:57;5.43;;;4.93;;
13951;SDS011;39535;52.192;9.886;2023-05-20T07:14:23;5.40;;;5.00;;
13951;SDS011;39535;52.192;9.886;2023-05-20T07:16:49;6.40;;;5.90;;
13951;SDS011;39535;52.192;9.886;2023-05-20T07:19:16;5.30;;;4.83;;
13951;SDS011;39535;52.192;9.886;2023-05-20T07:21:42;5.30;;;4.87;;
13951;SDS011;39535;52.192;9.886;2023-05-20T07:24:10;5.30;;;4.80;;
13951;SDS011;39535;52.192;9.886;2023-05-20T07:26:36;5.07;;;4.57;;
13951;SDS011;39535;52.192;9.886;2023-05-20T07:29:02;5.80;;;4.27;;
13951;SDS011;39535;52.192;9.886;2023-05-20T07:31:29;4.73;;;4.43;;
13951;SDS011;39535;52.192;9.886;2023-05-20T07:33:56;5.50;;;5.00;;
13951;SDS011;39535;52.192;9.886;2023-05-20T07:36:22;5.90;;;4.60;;
13951;SDS011;39535;52.192;9.886;2023-05-20T07:38:49;4.57;;;4.17;;
13951;SDS011;39535;52.192;9.886;2023-05-20T07:41:16;5.13;;;4.63;;
13951;SDS011;39535;52.192;9.886;2023-05-20T07:43:43;5.33;;;4.93;;
13951;SDS011;39535;52.192;9.886;2023-05-20T07:46:11;5.20;;;4.80;;
13951;SDS011;39535;52.192;9.886;2023-05-20T07:48:37;4.70;;;4.30;;
13951;SDS011;39535;52.192;9.886;2023-05-20T07:51:03;5.00;;;4.60;;
13951;SDS011;39535;52.192;9.886;2023-05-20T07:53:30;5.13;;;4.73;;
13951;SDS011;39535;52.192;9.886;2023-05-20T07:55:57;5.30;;;4.90;;
13951;SDS011;39535;52.192;9.886;2023-05-20T07:58:26;6.20;;;5.70;;
13951;SDS011;39535;52.192;9.886;2023-05-20T08:00:52;6.20;;;5.63;;
13951;SDS011;39535;52.192;9.886;2023-05-20T08:03:18;5.97;;;5.43;;
13951;SDS011;39535;52.192;9.886;2023-05-20T08:05:46;5.90;;;5.50;;
13951;SDS011;39535;52.192;9.886;2023-05-20T08:08:12;5.80;;;5.40;;
13951;SDS011;39535;52.192;9.886;2023-05-20T08:10:39;6.10;;;5.63;;
13951;SDS011;39535;52.192;9.886;2023-05-20T08:13:05;6.27;;;5.57;;
13951;SDS011;39535;52.192;9.886;2023-05-20T08:15:33;6.87;;;6.37;;
13951;SDS011;39535;52.192;9.886;2023-05-20T08:18:00;6.67;;;6.10;;
13951;SDS011;39535;52.192;9.886;2023-05-20T08:20:27;7.03;;;6.43;;
13951;SDS011;39535;52.192;9.886;2023-05-20T08:22:54;6.97;;;6.47;;
13951;SDS011;39535;52.192;9.886;2023-05-20T08:25:20;8.00;;;7.40;;
13951;SDS011;39535;52.192;9.886;2023-05-20T08:27:47;7.90;;;7.30;;
13951;SDS011;39535;52.192;9.886;2023-05-20T08:30:14;7.83;;;7.27;;
13951;SDS011;39535;52.192;9.886;2023-05-20T08:32:41;7.10;;;6.60;;
13951;SDS011;39535;52.192;9.886;2023-05-20T08:35:08;6.80;;;6.30;;
13951;SDS011;39535;52.192;9.886;2023-05-20T08:37:35;8.63;;;7.93;;
13951;SDS011;39535;52.192;9.886;2023-05-20T08:40:01;7.57;;;7.00;;
13951;SDS011;39535;52.192;9.886;2023-05-20T08:42:29;7.97;;;7.47;;
13951;SDS011;39535;52.192;9.886;2023-05-20T08:44:55;7.50;;;6.90;;
13951;SDS011;39535;52.192;9.886;2023-05-20T08:47:24;8.40;;;7.80;;
13951;SDS011;39535;52.192;9.886;2023-05-20T08:49:52;6.70;;;6.20;;
13951;SDS011;39535;52.192;9.886;2023-05-20T08:52:20;7.97;;;7.20;;
13951;SDS011;39535;52.192;9.886;2023-05-20T08:54:47;6.97;;;6.47;;
13951;SDS011;39535;52.192;9.886;2023-05-20T08:57:15;7.23;;;6.63;;
13951;SDS011;39535;52.192;9.886;2023-05-20T08:59:44;7.30;;;6.70;;
13951;SDS011;39535;52.192;9.886;2023-05-20T09:02:11;7.43;;;6.73;;
13951;SDS011;39535;52.192;9.886;2023-05-20T09:04:38;6.83;;;6.33;;
13951;SDS011;39535;52.192;9.886;2023-05-20T09:07:06;7.47;;;6.97;;
13951;SDS011;39535;52.192;9.886;2023-05-20T09:09:33;7.37;;;6.80;;
13951;SDS011;39535;52.192;9.886;2023-05-20T09:12:00;6.90;;;6.40;;
13951;SDS011;39535;52.192;9.886;2023-05-20T09:14:27;10.13;;;6.40;;
13951;SDS011;39535;52.192;9.886;2023-05-20T09:16:53;6.90;;;6.40;;
13951;SDS011;39535;52.192;9.886;2023-05-20T09:19:20;7.17;;;5.47;;
13951;SDS011;39535;52.192;9.886;2023-05-20T09:21:47;6.40;;;5.90;;
13951;SDS011;39535;52.192;9.886;2023-05-20T09:24:18;6.00;;;5.60;;
13951;SDS011;39535;52.192;9.886;2023-05-20T09:26:45;6.03;;;5.53;;
13951;SDS011;39535;52.192;9.886;2023-05-20T09:29:11;5.50;;;5.00;;
13951;SDS011;39535;52.192;9.886;2023-05-20T09:31:38;5.20;;;4.80;;
13951;SDS011;39535;52.192;9.886;2023-05-20T09:34:05;5.73;;;5.33;;
13951;SDS011;39535;52.192;9.886;2023-05-20T09:36:32;5.00;;;4.60;;
13951;SDS011;39535;52.192;9.886;2023-05-20T09:39:01;4.67;;;4.27;;
13951;SDS011;39535;52.192;9.886;2023-05-20T09:41:32;5.10;;;4.73;;
13951;SDS011;39535;52.192;9.886;2023-05-20T09:43:59;4.37;;;4.07;;
13951;SDS011;39535;52.192;9.886;2023-05-20T09:46:25;4.40;;;4.00;;
13951;SDS011;39535;52.192;9.886;2023-05-20T09:48:52;4.47;;;4.10;;
13951;SDS011;39535;52.192;9.886;2023-05-20T09:51:19;8.20;;;5.23;;
13951;SDS011;39535;52.192;9.886;2023-05-20T09:53:48;5.00;;;4.60;;
13951;SDS011;39535;52.192;9.886;2023-05-20T09:56:16;4.60;;;4.30;;
13951;SDS011;39535;52.192;9.886;2023-05-20T09:58:46;4.63;;;4.23;;
13951;SDS011;39535;52.192;9.886;2023-05-20T10:01:14;4.97;;;4.57;;
13951;SDS011;39535;52.192;9.886;2023-05-20T10:03:41;4.27;;;3.97;;
13951;SDS011;39535;52.192;9.886;2023-05-20T10:06:15;4.13;;;3.83;;
13951;SDS011;39535;52.192;9.886;2023-05-20T10:08:57;4.63;;;4.10;;
13951;SDS011;39535;52.192;9.886;2023-05-20T10:11:37;4.67;;;4.13;;
13951;SDS011;39535;52.192;9.886;2023-05-20T10:14:17;4.97;;;4.00;;
13951;SDS011;39535;52.192;9.886;2023-05-20T10:16:55;3.53;;;3.33;;
13951;SDS011;39535;52.192;9.886;2023-05-20T10:19:32;4.80;;;4.40;;
13951;SDS011;39535;52.192;9.886;2023-05-20T10:21:59;4.40;;;4.10;;
13951;SDS011;39535;52.192;9.886;2023-05-20T10:24:29;4.60;;;4.20;;
13951;SDS011;39535;52.192;9.886;2023-05-20T10:26:57;4.77;;;4.37;;
13951;SDS011;39535;52.192;9.886;2023-05-20T10:29:28;4.23;;;3.93;;
13951;SDS011;39535;52.192;9.886;2023-05-20T10:31:54;4.00;;;3.70;;
13951;SDS011;39535;52.192;9.886;2023-05-20T10:34:21;4.70;;;4.40;;
13951;SDS011;39535;52.192;9.886;2023-05-20T10:36:56;4.60;;;4.20;;
13951;SDS011;39535;52.192;9.886;2023-05-20T10:39:24;4.43;;;4.03;;
13951;SDS011;39535;52.192;9.886;2023-05-20T10:41:52;4.60;;;4.27;;
13951;SDS011;39535;52.192;9.886;2023-05-20T10:44:18;3.97;;;3.67;;
13951;SDS011;39535;52.192;9.886;2023-05-20T10:46:46;3.87;;;3.57;;
13951;SDS011;39535;52.192;9.886;2023-05-20T10:49:31;3.73;;;3.53;;
13951;SDS011;39535;52.192;9.886;2023-05-20T10:51:59;4.00;;;3.70;;
13951;SDS011;39535;52.192;9.886;2023-05-20T10:54:26;4.93;;;4.50;;
13951;SDS011;39535;52.192;9.886;2023-05-20T10:56:53;4.13;;;3.83;;
13951;SDS011;39535;52.192;9.886;2023-05-20T10:59:21;4.30;;;3.90;;
13951;SDS011;39535;52.192;9.886;2023-05-20T11:01:49;4.07;;;3.77;;
13951;SDS011;39535;52.192;9.886;2023-05-20T11:04:15;4.20;;;3.80;;
13951;SDS011;39535;52.192;9.886;2023-05-20T11:06:48;4.03;;;3.67;;
13951;SDS011;39535;52.192;9.886;2023-05-20T11:09:15;4.10;;;3.80;;
13951;SDS011;39535;52.192;9.886;2023-05-20T11:11:41;4.20;;;3.90;;
13951;SDS011;39535;52.192;9.886;2023-05-20T11:14:08;4.00;;;3.70;;
13951;SDS011;39535;52.192;9.886;2023-05-20T11:16:37;4.27;;;3.97;;
13951;SDS011;39535;52.192;9.886;2023-05-20T11:19:07;4.40;;;4.10;;
13951;SDS011;39535;52.192;9.886;2023-05-20T11:21:33;4.53;;;4.23;;
13951;SDS011;39535;52.192;9.886;2023-05-20T11:24:00;4.10;;;3.80;;
13951;SDS011;39535;52.192;9.886;2023-05-20T11:26:27;4.50;;;4.03;;
13951;SDS011;39535;52.192;9.886;2023-05-20T11:28:54;4.40;;;4.00;;
13951;SDS011;39535;52.192;9.886;2023-05-20T11:31:21;4.40;;;4.10;;
13951;SDS011;39535;52.192;9.886;2023-05-20T11:33:49;3.90;;;3.60;;
13951;SDS011;39535;52.192;9.886;2023-05-20T11:36:17;4.43;;;3.83;;
13951;SDS011;39535;52.192;9.886;2023-05-20T11:38:44;3.93;;;3.63;;
13951;SDS011;39535;52.192;9.886;2023-05-20T11:41:11;6.10;;;3.90;;
13951;SDS011;39535;52.192;9.886;2023-05-20T11:43:37;4.00;;;3.70;;
13951;SDS011;39535;52.192;9.886;2023-05-20T11:46:05;4.13;;;3.83;;
13951;SDS011;39535;52.192;9.886;2023-05-20T11:48:32;4.93;;;3.87;;
13951;SDS011;39535;52.192;9.886;2023-05-20T11:50:58;4.50;;;4.20;;
13951;SDS011;39535;52.192;9.886;2023-05-20T11:53:26;4.87;;;4.30;;
13951;SDS011;39535;52.192;9.886;2023-05-20T11:55:53;4.70;;;4.30;;
13951;SDS011;39535;52.192;9.886;2023-05-20T11:58:21;5.00;;;4.60;;
13951;SDS011;39535;52.192;9.886;2023-05-20T12:00:48;3.90;;;3.60;;
13951;SDS011;39535;52.192;9.886;2023-05-20T12:03:15;4.80;;;4.43;;
13951;SDS011;39535;52.192;9.886;2023-05-20T12:05:42;4.33;;;3.93;;
13951;SDS011;39535;52.192;9.886;2023-05-20T12:08:08;4.17;;;3.87;;
13951;SDS011;39535;52.192;9.886;2023-05-20T12:10:36;5.03;;;4.53;;
13951;SDS011;39535;52.192;9.886;2023-05-20T12:13:02;4.77;;;4.37;;
13951;SDS011;39535;52.192;9.886;2023-05-20T12:15:32;4.40;;;4.10;;
13951;SDS011;39535;52.192;9.886;2023-05-20T12:17:58;4.37;;;3.97;;
13951;SDS011;39535;52.192;9.886;2023-05-20T12:20:25;4.20;;;3.90;;
13951;SDS011;39535;52.192;9.886;2023-05-20T12:22:52;4.37;;;3.97;;
13951;SDS011;39535;52.192;9.886;2023-05-20T12:25:19;5.63;;;4.77;;
13951;SDS011;39535;52.192;9.886;2023-05-20T12:27:47;4.33;;;4.03;;
13951;SDS011;39535;52.192;9.886;2023-05-20T12:30:14;5.20;;;4.70;;
13951;SDS011;39535;52.192;9.886;2023-05-20T12:32:42;4.90;;;4.47;;
13951;SDS011;39535;52.192;9.886;2023-05-20T12:35:08;4.73;;;4.33;;
13951;SDS011;39535;52.192;9.886;2023-05-20T12:37:35;4.90;;;4.50;;
13951;SDS011;39535;52.192;9.886;2023-05-20T12:40:03;4.60;;;4.20;;
13951;SDS011;39535;52.192;9.886;2023-05-20T12:42:32;5.17;;;4.70;;
13951;SDS011;39535;52.192;9.886;2023-05-20T12:45:00;4.30;;;3.90;;
13951;SDS011;39535;52.192;9.886;2023-05-20T12:47:27;5.10;;;4.70;;
13951;SDS011;39535;52.192;9.886;2023-05-20T12:49:53;4.43;;;4.03;;
13951;SDS011;39535;52.192;9.886;2023-05-20T12:52:20;4.77;;;4.47;;
13951;SDS011;39535;52.192;9.886;2023-05-20T12:54:46;4.50;;;4.10;;
13951;SDS011;39535;52.192;9.886;2023-05-20T12:57:12;4.73;;;4.20;;
13951;SDS011;39535;52.192;9.886;2023-05-20T12:59:39;4.60;;;4.27;;
13951;SDS011;39535;52.192;9.886;2023-05-20T13:02:07;4.40;;;4.10;;
13951;SDS011;39535;52.192;9.886;2023-05-20T13:04:34;4.43;;;4.03;;
13951;SDS011;39535;52.192;9.886;2023-05-20T13:07:00;5.20;;;4.80;;
13951;SDS011;39535;52.192;9.886;2023-05-20T13:09:27;5.23;;;4.73;;
13951;SDS011;39535;52.192;9.886;2023-05-20T13:11:53;4.93;;;4.40;;
13951;SDS011;39535;52.192;9.886;2023-05-20T13:14:20;5.73;;;5.20;;
13951;SDS011;39535;52.192;9.886;2023-05-20T13:16:47;5.17;;;4.77;;
13951;SDS011;39535;52.192;9.886;2023-05-20T13:19:15;5.50;;;5.00;;
13951;SDS011;39535;52.192;9.886;2023-05-20T13:21:42;5.20;;;4.80;;
13951;SDS011;39535;52.192;9.886;2023-05-20T13:24:08;5.13;;;4.77;;
13951;SDS011;39535;52.192;9.886;2023-05-20T13:26:34;7.83;;;4.60;;
13951;SDS011;39535;52.192;9.886;2023-05-20T13:29:01;5.20;;;4.60;;
13951;SDS011;39535;52.192;9.886;2023-05-20T13:31:27;4.90;;;4.50;;
13951;SDS011;39535;52.192;9.886;2023-05-20T13:33:53;4.83;;;4.33;;
13951;SDS011;39535;52.192;9.886;2023-05-20T13:36:24;5.20;;;4.70;;
13951;SDS011;39535;52.192;9.886;2023-05-20T13:38:50;5.40;;;5.00;;
13951;SDS011;39535;52.192;9.886;2023-05-20T13:41:17;4.97;;;4.63;;
13951;SDS011;39535;52.192;9.886;2023-05-20T13:43:44;5.27;;;4.87;;
13951;SDS011;39535;52.192;9.886;2023-05-20T13:46:10;4.93;;;4.50;;
13951;SDS011;39535;52.192;9.886;2023-05-20T13:48:36;7.60;;;5.10;;
13951;SDS011;39535;52.192;9.886;2023-05-20T13:51:03;5.63;;;5.10;;
13951;SDS011;39535;52.192;9.886;2023-05-20T13:53:31;5.10;;;4.60;;
13951;SDS011;39535;52.192;9.886;2023-05-20T13:55:57;6.57;;;4.77;;
13951;SDS011;39535;52.192;9.886;2023-05-20T13:58:24;5.07;;;4.67;;
13951;SDS011;39535;52.192;9.886;2023-05-20T14:00:50;4.70;;;4.30;;
13951;SDS011;39535;52.192;9.886;2023-05-20T14:03:17;5.20;;;4.70;;
13951;SDS011;39535;52.192;9.886;2023-05-20T14:05:44;5.20;;;4.80;;
13951;SDS011;39535;52.192;9.886;2023-05-20T14:08:11;4.83;;;4.33;;
13951;SDS011;39535;52.192;9.886;2023-05-20T14:10:39;4.93;;;4.23;;
13951;SDS011;39535;52.192;9.886;2023-05-20T14:13:05;4.43;;;4.13;;
13951;SDS011;39535;52.192;9.886;2023-05-20T14:15:32;7.70;;;4.40;;
13951;SDS011;39535;52.192;9.886;2023-05-20T14:17:59;4.93;;;4.40;;
13951;SDS011;39535;52.192;9.886;2023-05-20T14:20:25;5.50;;;4.87;;
13951;SDS011;39535;52.192;9.886;2023-05-20T14:22:51;5.00;;;4.50;;
13951;SDS011;39535;52.192;9.886;2023-05-20T14:25:18;5.20;;;4.80;;
13951;SDS011;39535;52.192;9.886;2023-05-20T14:27:46;5.87;;;5.37;;
13951;SDS011;39535;52.192;9.886;2023-05-20T14:30:12;5.00;;;4.50;;
13951;SDS011;39535;52.192;9.886;2023-05-20T14:32:38;5.27;;;4.43;;
13951;SDS011;39535;52.192;9.886;2023-05-20T14:35:05;5.43;;;4.93;;
13951;SDS011;39535;52.192;9.886;2023-05-20T14:37:32;5.30;;;4.90;;
13951;SDS011;39535;52.192;9.886;2023-05-20T14:39:58;5.10;;;4.70;;
13951;SDS011;39535;52.192;9.886;2023-05-20T14:42:25;5.50;;;5.00;;
13951;SDS011;39535;52.192;9.886;2023-05-20T14:44:53;5.30;;;4.90;;
13951;SDS011;39535;52.192;9.886;2023-05-20T14:47:20;5.23;;;4.70;;